Time;durP1;ratioP1;P1;durP2;ratioP2;P2;SDS_P1;SDS_P2;PMS_P1;PMS_P2;Temp;Humidity;BMP_temperature;BMP_pressure;BME280_temperature;BME280_humidity;BME280_pressure;Samples;Min_cycle;Max_cycle;Signal;HPM_P1;HPM_P2
2023/06/12 00:01:03;;;;;;;8.17;4.10;;;19.10;44.90;;;;;;5187356;28;20438;-47
2023/06/12 00:03:34;;;;;;;4.50;3.20;;;19.00;44.20;;;;;;5201778;28;20218;-47
2023/06/12 00:06:05;;;;;;;3.50;3.30;;;19.00;44.30;;;;;;5191924;28;20195;-47
2023/06/12 00:08:41;;;;;;;4.27;3.67;;;18.90;44.30;;;;;;5201830;28;20437;-47
2023/06/12 00:11:16;;;;;;;5.73;3.63;;;18.80;44.40;;;;;;5205214;28;20592;-47
2023/06/12 00:13:47;;;;;;;4.77;3.93;;;18.80;44.80;;;;;;5201683;28;20429;-47
2023/06/12 00:16:18;;;;;;;4.33;3.30;;;18.70;44.70;;;;;;5199749;28;20476;-48
2023/06/12 00:18:49;;;;;;;5.83;3.60;;;18.70;44.70;;;;;;5200832;28;20434;-47
2023/06/12 00:21:21;;;;;;;3.57;3.27;;;18.60;44.70;;;;;;5203342;28;20191;-46
2023/06/12 00:23:52;;;;;;;3.87;3.57;;;18.60;44.80;;;;;;5202084;28;20487;-49
2023/06/12 00:26:22;;;;;;;4.20;3.80;;;18.50;44.50;;;;;;5189932;28;20488;-47
2023/06/12 00:28:53;;;;;;;3.77;3.40;;;18.50;44.30;;;;;;5204958;28;20628;-48
2023/06/12 00:31:24;;;;;;;11.13;4.27;;;18.50;44.20;;;;;;5205197;28;20193;-48
2023/06/12 00:33:55;;;;;;;3.57;3.23;;;18.50;44.40;;;;;;5183573;28;20804;-48
2023/06/12 00:36:26;;;;;;;3.70;3.40;;;18.40;44.00;;;;;;5186401;28;20207;-47
2023/06/12 00:38:57;;;;;;;12.80;3.80;;;18.40;44.10;;;;;;5197819;28;20249;-47
2023/06/12 00:41:29;;;;;;;3.30;3.10;;;18.30;44.00;;;;;;5212764;28;20527;-46
2023/06/12 00:44:00;;;;;;;5.87;3.80;;;18.30;44.20;;;;;;5212556;28;20476;-47
2023/06/12 00:46:31;;;;;;;5.00;3.80;;;18.20;44.00;;;;;;5195392;28;20707;-46
2023/06/12 00:49:03;;;;;;;5.57;3.40;;;18.20;44.10;;;;;;5200034;28;20513;-47
2023/06/12 00:51:34;;;;;;;6.90;3.10;;;18.20;44.20;;;;;;5186317;28;20187;-47
2023/06/12 00:54:05;;;;;;;5.87;4.00;;;18.10;44.10;;;;;;5185236;28;20434;-46
2023/06/12 00:56:35;;;;;;;10.33;3.63;;;18.10;44.20;;;;;;5196337;28;20836;-46
2023/06/12 00:59:06;;;;;;;9.93;3.63;;;18.00;44.30;;;;;;5182971;28;20447;-46
2023/06/12 01:01:37;;;;;;;3.50;3.23;;;17.90;44.30;;;;;;5203917;28;20278;-47
2023/06/12 01:04:09;;;;;;;3.37;3.17;;;17.90;44.30;;;;;;5200705;28;20207;-47
2023/06/12 01:06:59;;;;;;;4.67;3.43;;;17.90;44.20;;;;;;5184938;28;20191;-48
2023/06/12 01:09:43;;;;;;;9.63;3.27;;;17.80;44.10;;;;;;5202890;28;20451;-45
2023/06/12 01:12:15;;;;;;;2.97;2.63;;;17.80;44.10;;;;;;5178799;28;20442;-47
2023/06/12 01:14:46;;;;;;;3.63;3.33;;;17.80;44.20;;;;;;5204972;28;20460;-47
2023/06/12 01:17:17;;;;;;;3.90;3.50;;;17.70;43.80;;;;;;5185692;28;20754;-47
2023/06/12 01:19:48;;;;;;;4.40;3.40;;;17.70;43.90;;;;;;5201008;28;20229;-49
2023/06/12 01:22:21;;;;;;;8.90;3.80;;;17.70;43.90;;;;;;5181389;28;20676;-46
2023/06/12 01:25:04;;;;;;;3.10;2.90;;;17.60;43.70;;;;;;5183039;28;20585;-46
2023/06/12 01:27:48;;;;;;;4.13;3.70;;;17.60;43.70;;;;;;5197419;28;20435;-47
2023/06/12 01:30:43;;;;;;;3.63;3.30;;;17.60;43.60;;;;;;5206281;28;20424;-50
2023/06/12 01:33:17;;;;;;;5.00;3.80;;;17.50;43.40;;;;;;5199152;28;20471;-44
2023/06/12 01:35:51;;;;;;;3.67;3.30;;;17.50;43.50;;;;;;5186921;28;20478;-46
2023/06/12 01:38:23;;;;;;;3.60;2.93;;;17.40;43.40;;;;;;5173439;28;20445;-45
2023/06/12 01:40:55;;;;;;;3.30;3.00;;;17.40;43.20;;;;;;5202486;28;20485;-47
2023/06/12 01:43:26;;;;;;;3.90;3.70;;;17.40;43.00;;;;;;5211577;28;20469;-47
2023/06/12 01:45:56;;;;;;;2.83;2.70;;;17.40;42.90;;;;;;5183614;28;20485;-49
2023/06/12 01:48:27;;;;;;;11.10;2.87;;;17.40;42.70;;;;;;5199609;28;20180;-47
2023/06/12 01:50:58;;;;;;;2.77;2.67;;;17.30;42.80;;;;;;5182000;28;20187;-46
2023/06/12 01:53:28;;;;;;;6.87;3.20;;;17.30;42.40;;;;;;5192025;28;20180;-47
2023/06/12 01:56:00;;;;;;;9.03;2.80;;;17.30;42.50;;;;;;5182614;28;20208;-48
2023/06/12 01:58:31;;;;;;;3.40;3.10;;;17.30;42.20;;;;;;5198374;28;20247;-47
2023/06/12 02:01:01;;;;;;;3.53;2.47;;;17.30;42.00;;;;;;5207965;28;20545;-48
2023/06/12 02:03:32;;;;;;;2.87;2.77;;;17.30;42.00;;;;;;5199081;28;20202;-47
2023/06/12 02:06:03;;;;;;;3.43;3.10;;;17.30;42.10;;;;;;5165350;28;20214;-46
2023/06/12 02:08:34;;;;;;;3.17;2.57;;;17.20;42.20;;;;;;5177731;28;20188;-46
2023/06/12 02:11:04;;;;;;;3.27;2.70;;;17.20;42.30;;;;;;5203662;28;20511;-46
2023/06/12 02:13:35;;;;;;;6.33;3.07;;;17.20;42.50;;;;;;5180100;28;20184;-47
2023/06/12 02:16:07;;;;;;;7.47;2.90;;;17.10;42.80;;;;;;5201751;28;20290;-47
2023/06/12 02:18:40;;;;;;;9.07;3.17;;;17.00;43.00;;;;;;5182023;28;20426;-47
2023/06/12 02:21:10;;;;;;;2.93;2.73;;;17.00;43.30;;;;;;5202496;28;20438;-47
2023/06/12 02:23:41;;;;;;;3.50;3.23;;;16.90;43.30;;;;;;5182663;28;20464;-47
2023/06/12 02:26:12;;;;;;;3.10;2.87;;;16.90;43.70;;;;;;5202230;28;20282;-48
2023/06/12 02:28:43;;;;;;;8.50;3.13;;;16.80;44.30;;;;;;5194005;28;20175;-46
2023/06/12 02:31:13;;;;;;;3.07;2.70;;;16.80;44.90;;;;;;5176552;28;20180;-45
2023/06/12 02:33:44;;;;;;;4.27;3.47;;;16.70;45.30;;;;;;5204039;28;20191;-48
2023/06/12 02:36:15;;;;;;;3.83;3.33;;;16.60;45.70;;;;;;5187170;28;20241;-47
2023/06/12 02:38:46;;;;;;;3.73;3.50;;;16.50;46.40;;;;;;5191496;28;20321;-46
2023/06/12 02:41:16;;;;;;;4.53;4.13;;;16.50;46.70;;;;;;5191525;28;20191;-47
2023/06/12 02:43:47;;;;;;;5.50;4.17;;;16.40;47.40;;;;;;5189238;28;20446;-48
2023/06/12 02:46:17;;;;;;;5.60;3.20;;;16.30;47.40;;;;;;5204734;28;20227;-47
2023/06/12 02:48:48;;;;;;;3.47;3.23;;;16.30;47.80;;;;;;5202867;28;20181;-46
2023/06/12 02:51:19;;;;;;;3.53;3.30;;;16.20;48.20;;;;;;5199706;28;20179;-48
2023/06/12 02:53:49;;;;;;;3.83;3.47;;;16.10;48.50;;;;;;5206350;28;20194;-48
2023/06/12 02:56:20;;;;;;;4.80;4.30;;;16.00;48.70;;;;;;5205757;28;20866;-47
2023/06/12 02:58:50;;;;;;;4.00;3.33;;;16.00;48.90;;;;;;5207514;28;20190;-47
2023/06/12 03:01:21;;;;;;;6.77;4.17;;;16.00;49.00;;;;;;5209385;28;20554;-49
2023/06/12 03:03:52;;;;;;;4.57;4.23;;;15.90;49.10;;;;;;5186079;28;20196;-47
2023/06/12 03:06:26;;;;;;;3.67;3.40;;;15.90;49.30;;;;;;5185967;28;20188;-52
2023/06/12 03:08:56;;;;;;;3.87;3.53;;;15.80;49.60;;;;;;5201700;28;20886;-47
2023/06/12 03:11:27;;;;;;;5.03;4.03;;;15.80;49.90;;;;;;5187722;28;20466;-48
2023/06/12 03:13:58;;;;;;;4.00;3.60;;;15.70;49.80;;;;;;5211459;28;20192;-47
2023/06/12 03:16:30;;;;;;;5.80;3.80;;;15.60;50.00;;;;;;5201321;28;20179;-47
2023/06/12 03:19:00;;;;;;;6.47;4.03;;;15.60;49.90;;;;;;5192879;28;20549;-47
2023/06/12 03:21:31;;;;;;;4.13;3.70;;;15.60;50.00;;;;;;5212045;28;20441;-47
2023/06/12 03:24:02;;;;;;;7.77;3.33;;;15.60;50.20;;;;;;5210306;28;20203;-48
2023/06/12 03:26:33;;;;;;;7.00;4.30;;;15.60;50.10;;;;;;5185855;28;20206;-48
2023/06/12 03:29:04;;;;;;;9.43;3.67;;;15.60;50.10;;;;;;5204750;28;21257;-49
2023/06/12 03:31:35;;;;;;;4.50;4.10;;;15.60;50.20;;;;;;5212537;28;20461;-48
2023/06/12 03:34:05;;;;;;;6.83;3.60;;;15.50;50.00;;;;;;5214006;28;20195;-47
2023/06/12 03:36:37;;;;;;;5.20;3.30;;;15.50;50.00;;;;;;5192739;28;20194;-47
2023/06/12 03:39:09;;;;;;;5.37;3.67;;;15.50;49.90;;;;;;5190026;28;20178;-48
2023/06/12 03:41:52;;;;;;;3.60;3.00;;;15.50;49.80;;;;;;5212369;28;20575;-50
2023/06/12 03:44:23;;;;;;;3.97;3.67;;;15.60;49.80;;;;;;5188348;28;20880;-47
2023/06/12 03:46:54;;;;;;;6.80;3.43;;;15.60;49.30;;;;;;5184726;28;20433;-49
2023/06/12 03:49:26;;;;;;;3.60;3.30;;;15.60;49.30;;;;;;5181227;28;20442;-49
2023/06/12 03:51:57;;;;;;;3.50;3.20;;;15.60;49.30;;;;;;5212380;28;20424;-47
2023/06/12 03:54:27;;;;;;;6.63;4.10;;;15.60;49.20;;;;;;5205202;28;20449;-48
2023/06/12 03:56:58;;;;;;;3.93;3.20;;;15.70;49.10;;;;;;5189657;28;20202;-48
2023/06/12 03:59:28;;;;;;;5.37;3.60;;;15.70;49.00;;;;;;5190763;28;20274;-47
2023/06/12 04:01:59;;;;;;;4.00;3.60;;;15.70;49.00;;;;;;5194432;28;20192;-48
2023/06/12 04:04:31;;;;;;;3.63;3.43;;;15.80;48.90;;;;;;5185551;28;20704;-48
2023/06/12 04:07:01;;;;;;;4.10;3.07;;;15.80;48.90;;;;;;5201459;28;20172;-48
2023/06/12 04:09:32;;;;;;;5.57;3.13;;;15.80;48.90;;;;;;5199317;28;20438;-50
2023/06/12 04:12:03;;;;;;;5.37;3.50;;;15.90;48.70;;;;;;5196588;28;20191;-49
2023/06/12 04:14:34;;;;;;;5.70;3.83;;;16.00;48.60;;;;;;5188620;28;20726;-47
2023/06/12 04:17:05;;;;;;;11.93;4.00;;;16.10;48.40;;;;;;5190210;28;20499;-49
2023/06/12 04:19:36;;;;;;;4.93;3.60;;;16.20;48.40;;;;;;5203244;28;20180;-49
2023/06/12 04:22:06;;;;;;;4.70;3.13;;;16.30;48.00;;;;;;5194313;28;20190;-47
2023/06/12 04:24:38;;;;;;;5.77;3.43;;;16.50;47.60;;;;;;5187322;28;20678;-48
2023/06/12 04:27:10;;;;;;;5.40;3.60;;;16.60;47.40;;;;;;5208873;28;20172;-47
2023/06/12 04:29:42;;;;;;;5.07;3.20;;;16.80;47.40;;;;;;5199036;28;20578;-47
2023/06/12 04:32:13;;;;;;;3.30;3.00;;;17.00;46.40;;;;;;5173540;28;20442;-49
2023/06/12 04:34:45;;;;;;;3.87;3.40;;;17.30;46.30;;;;;;5203289;28;20462;-47
2023/06/12 04:37:18;;;;;;;5.30;3.57;;;17.50;45.60;;;;;;5185671;28;20203;-48
2023/06/12 04:39:50;;;;;;;4.07;2.77;;;17.70;45.40;;;;;;5181845;28;20439;-48
2023/06/12 04:42:23;;;;;;;4.80;2.93;;;18.00;44.80;;;;;;5202528;28;20481;-46
2023/06/12 04:44:53;;;;;;;4.10;3.47;;;18.30;44.40;;;;;;5198239;28;20506;-48
2023/06/12 04:47:24;;;;;;;3.50;3.20;;;18.50;43.40;;;;;;5197505;28;20537;-48
2023/06/12 04:49:57;;;;;;;4.17;3.67;;;18.70;43.20;;;;;;5191603;28;20172;-47
2023/06/12 04:52:28;;;;;;;3.40;3.10;;;18.90;43.10;;;;;;5189018;28;20267;-49
2023/06/12 04:54:59;;;;;;;4.70;3.53;;;19.30;42.70;;;;;;5188760;28;20825;-46
2023/06/12 04:57:31;;;;;;;6.27;3.63;;;19.90;41.50;;;;;;5204998;28;20184;-46
2023/06/12 05:00:05;;;;;;;3.43;3.00;;;20.40;41.00;;;;;;5185786;28;20475;-46
2023/06/12 05:02:36;;;;;;;8.00;3.03;;;21.10;40.30;;;;;;5197128;28;20433;-47
2023/06/12 05:05:07;;;;;;;10.00;3.53;;;22.30;38.80;;;;;;5197963;28;20462;-48
2023/06/12 05:07:37;;;;;;;3.63;2.80;;;23.40;37.10;;;;;;5200954;28;20675;-46
2023/06/12 05:10:09;;;;;;;4.73;3.70;;;24.20;36.40;;;;;;5185785;28;20426;-49
2023/06/12 05:12:39;;;;;;;3.60;3.30;;;25.10;34.80;;;;;;5199491;28;20199;-47
2023/06/12 05:15:10;;;;;;;3.77;3.03;;;25.20;34.10;;;;;;5199423;28;20487;-46
2023/06/12 05:17:41;;;;;;;7.60;3.23;;;24.90;33.60;;;;;;5177844;28;20175;-46
2023/06/12 05:20:12;;;;;;;4.60;2.80;;;25.20;33.60;;;;;;5206263;28;20214;-48
2023/06/12 05:22:43;;;;;;;4.50;2.90;;;25.20;33.60;;;;;;5201844;28;20529;-46
2023/06/12 05:25:15;;;;;;;3.57;3.27;;;25.80;33.20;;;;;;5187589;28;20500;-47
2023/06/12 05:27:46;;;;;;;3.80;3.43;;;26.90;31.90;;;;;;5182867;28;20669;-48
2023/06/12 05:30:16;;;;;;;10.80;3.20;;;27.90;30.50;;;;;;5183786;28;20441;-47
2023/06/12 05:32:47;;;;;;;3.10;2.90;;;28.70;30.00;;;;;;5176314;28;20237;-48
2023/06/12 05:35:18;;;;;;;8.50;3.37;;;29.30;28.80;;;;;;5182559;28;20251;-48
2023/06/12 05:37:48;;;;;;;6.53;3.50;;;30.20;28.20;;;;;;5212643;28;20172;-47
2023/06/12 05:40:19;;;;;;;3.57;3.27;;;30.40;27.60;;;;;;5206615;28;20243;-46
2023/06/12 05:42:50;;;;;;;6.20;2.77;;;30.60;27.60;;;;;;5203456;28;20257;-46
2023/06/12 05:45:20;;;;;;;17.23;3.23;;;30.80;27.40;;;;;;5200693;28;20200;-47
2023/06/12 05:47:51;;;;;;;16.90;3.33;;;31.00;26.90;;;;;;5195732;28;20241;-47
2023/06/12 05:50:21;;;;;;;4.93;3.10;;;30.60;27.10;;;;;;5198818;28;20180;-48
2023/06/12 05:52:52;;;;;;;3.13;2.67;;;30.70;27.40;;;;;;5179469;28;20214;-48
2023/06/12 05:55:23;;;;;;;5.20;3.40;;;30.80;27.10;;;;;;5200524;28;20203;-45
2023/06/12 05:57:53;;;;;;;2.53;2.43;;;30.70;27.40;;;;;;5190595;28;20179;-47
2023/06/12 06:00:24;;;;;;;3.37;3.03;;;31.30;26.80;;;;;;5201421;28;20672;-48
2023/06/12 06:02:55;;;;;;;5.00;2.77;;;31.20;26.80;;;;;;5197672;28;20180;-48
2023/06/12 06:05:25;;;;;;;3.80;2.80;;;31.00;26.90;;;;;;5202044;28;20200;-46
2023/06/12 06:07:56;;;;;;;9.57;3.20;;;30.80;27.00;;;;;;5182018;28;20192;-46
2023/06/12 06:10:26;;;;;;;3.43;2.50;;;30.90;27.20;;;;;;5202836;28;20180;-46
2023/06/12 06:12:57;;;;;;;4.40;3.23;;;30.80;27.30;;;;;;5199146;28;20191;-48
2023/06/12 06:15:28;;;;;;;3.43;3.13;;;30.80;27.30;;;;;;5183619;28;20420;-53
2023/06/12 06:17:58;;;;;;;6.27;2.60;;;30.50;27.40;;;;;;5200641;28;20645;-47
2023/06/12 06:20:29;;;;;;;10.83;3.40;;;30.60;27.60;;;;;;5203468;28;20175;-47
2023/06/12 06:22:59;;;;;;;6.23;3.40;;;31.40;27.30;;;;;;5184846;28;20219;-47
2023/06/12 06:25:31;;;;;;;5.00;3.47;;;31.80;26.90;;;;;;5166274;28;20208;-48
2023/06/12 06:28:02;;;;;;;7.17;2.80;;;32.20;26.60;;;;;;5201398;28;20179;-46
2023/06/12 06:30:33;;;;;;;11.10;3.40;;;32.90;26.10;;;;;;5182521;28;20580;-48
2023/06/12 06:33:03;;;;;;;5.37;3.33;;;32.80;25.50;;;;;;5200942;28;20207;-47
2023/06/12 06:35:34;;;;;;;5.97;3.23;;;32.20;25.90;;;;;;5196785;28;20290;-47
2023/06/12 06:38:04;;;;;;;12.07;4.03;;;31.50;26.80;;;;;;5200881;28;20587;-48
2023/06/12 06:40:35;;;;;;;17.90;2.90;;;31.70;27.20;;;;;;5198839;28;20541;-46
2023/06/12 06:43:06;;;;;;;8.60;3.23;;;32.90;26.50;;;;;;5202429;28;20205;-48
2023/06/12 06:45:36;;;;;;;6.23;2.93;;;33.90;25.50;;;;;;5203543;28;20576;-47
2023/06/12 06:48:08;;;;;;;4.57;3.20;;;34.40;25.10;;;;;;5183656;28;20176;-48
2023/06/12 06:50:40;;;;;;;16.87;3.10;;;34.60;24.60;;;;;;5199960;28;20243;-47
2023/06/12 06:53:10;;;;;;;3.17;2.97;;;34.00;24.80;;;;;;5196563;28;20437;-47
2023/06/12 06:55:44;;;;;;;10.60;4.07;;;33.60;25.70;;;;;;5201222;28;20458;-47
2023/06/12 06:58:15;;;;;;;5.90;3.30;;;34.40;25.20;;;;;;5177012;28;20193;-47
2023/06/12 07:00:45;;;;;;;4.53;3.67;;;34.60;24.70;;;;;;5178030;28;20504;-49
2023/06/12 07:03:16;;;;;;;4.67;3.67;;;34.70;24.80;;;;;;5201546;28;20203;-47
2023/06/12 07:05:47;;;;;;;4.17;3.20;;;35.20;24.50;;;;;;5178312;28;20205;-47
2023/06/12 07:08:17;;;;;;;5.57;3.07;;;34.40;24.30;;;;;;5189121;28;20485;-47
2023/06/12 07:10:48;;;;;;;3.40;3.13;;;33.90;25.30;;;;;;5182179;28;20595;-48
2023/06/12 07:13:18;;;;;;;11.17;3.40;;;33.30;25.30;;;;;;5205340;28;20710;-47
2023/06/12 07:15:51;;;;;;;13.00;2.80;;;33.00;25.30;;;;;;5185225;28;20203;-47
2023/06/12 07:18:22;;;;;;;3.33;2.70;;;32.60;25.90;;;;;;5183419;28;20656;-48
2023/06/12 07:20:52;;;;;;;6.57;3.47;;;33.50;25.40;;;;;;5202080;28;20444;-47
2023/06/12 07:23:23;;;;;;;5.13;3.23;;;33.90;24.90;;;;;;5200877;28;20206;-46
2023/06/12 07:25:53;;;;;;;4.37;2.70;;;33.80;25.10;;;;;;5175307;28;20192;-45
2023/06/12 07:28:24;;;;;;;13.73;3.70;;;33.60;24.90;;;;;;5205329;28;20192;-46
2023/06/12 07:30:55;;;;;;;5.27;2.90;;;33.40;25.30;;;;;;5194236;28;20190;-47
2023/06/12 07:33:25;;;;;;;3.60;2.87;;;33.70;25.20;;;;;;5187553;28;20501;-47
2023/06/12 07:35:56;;;;;;;3.03;2.83;;;34.00;24.30;;;;;;5187136;28;20250;-47
2023/06/12 07:38:26;;;;;;;4.33;3.13;;;33.70;24.30;;;;;;5171551;28;20602;-47
2023/06/12 07:40:57;;;;;;;3.07;2.77;;;33.00;24.70;;;;;;5202615;28;20651;-51
2023/06/12 07:43:32;;;;;;;4.00;2.87;;;32.10;24.40;;;;;;5184275;28;20298;-46
2023/06/12 07:46:03;;;;;;;3.97;3.00;;;32.60;25.10;;;;;;5187956;28;20218;-46
2023/06/12 07:48:34;;;;;;;3.90;3.00;;;33.00;25.30;;;;;;5210601;28;20861;-46
2023/06/12 07:51:05;;;;;;;5.50;2.97;;;32.90;24.00;;;;;;5187274;28;20520;-46
2023/06/12 07:53:35;;;;;;;4.83;3.37;;;32.10;23.50;;;;;;5199669;28;20287;-46
2023/06/12 07:56:06;;;;;;;6.00;2.63;;;32.00;24.10;;;;;;5200019;28;20592;-46
2023/06/12 07:58:37;;;;;;;3.20;3.00;;;32.70;24.00;;;;;;5210821;28;20214;-47
2023/06/12 08:01:08;;;;;;;2.77;2.63;;;33.20;23.60;;;;;;5206058;28;20183;-46
2023/06/12 08:03:39;;;;;;;2.90;2.70;;;33.50;23.60;;;;;;5205382;28;21053;-47
2023/06/12 08:06:11;;;;;;;4.30;3.00;;;33.80;23.40;;;;;;5194190;28;20194;-46
2023/06/12 08:08:46;;;;;;;2.93;2.23;;;33.50;23.30;;;;;;5208914;28;20175;-46
2023/06/12 08:11:17;;;;;;;3.03;2.73;;;32.80;23.30;;;;;;5202442;28;20429;-46
2023/06/12 08:13:47;;;;;;;2.70;2.60;;;31.90;23.60;;;;;;5196254;28;20557;-47
2023/06/12 08:16:21;;;;;;;5.83;2.30;;;31.30;24.20;;;;;;5195685;28;20207;-46
2023/06/12 08:18:52;;;;;;;3.10;2.63;;;30.90;24.90;;;;;;5212061;28;20191;-46
2023/06/12 08:21:25;;;;;;;2.77;2.57;;;31.50;24.90;;;;;;5188022;28;20443;-47
2023/06/12 08:23:55;;;;;;;22.97;3.07;;;31.80;22.70;;;;;;5190225;28;20290;-46
2023/06/12 08:26:26;;;;;;;3.10;2.80;;;31.90;23.00;;;;;;5201930;28;20524;-47
2023/06/12 08:28:57;;;;;;;5.33;3.23;;;31.60;23.30;;;;;;5203611;28;20671;-46
2023/06/12 08:31:28;;;;;;;4.37;2.40;;;31.70;23.70;;;;;;5206778;28;20509;-46
2023/06/12 08:33:58;;;;;;;4.47;2.30;;;31.50;23.70;;;;;;5198956;28;20588;-46
2023/06/12 08:36:29;;;;;;;3.83;3.60;;;31.50;24.00;;;;;;5203909;28;20647;-48
2023/06/12 08:39:00;;;;;;;3.43;2.40;;;32.10;23.90;;;;;;5208449;28;20269;-46
2023/06/12 08:41:33;;;;;;;4.17;2.70;;;32.20;23.20;;;;;;5182925;28;20276;-46
2023/06/12 08:44:04;;;;;;;5.63;2.67;;;31.80;23.70;;;;;;5188520;28;20466;-47
2023/06/12 08:46:35;;;;;;;3.60;2.80;;;31.70;24.30;;;;;;5192368;28;20438;-47
2023/06/12 08:49:05;;;;;;;3.23;2.40;;;31.40;24.30;;;;;;5185798;28;20763;-46
2023/06/12 08:51:38;;;;;;;2.70;2.43;;;30.70;24.90;;;;;;5207228;28;20621;-45
2023/06/12 08:54:10;;;;;;;4.77;2.97;;;28.70;25.80;;;;;;5171078;28;20179;-47
2023/06/12 08:56:42;;;;;;;3.57;2.60;;;27.20;27.40;;;;;;5187830;28;20538;-46
2023/06/12 08:59:13;;;;;;;2.93;2.70;;;26.20;28.70;;;;;;5188308;28;20447;-47
2023/06/12 09:01:50;;;;;;;7.80;3.27;;;25.90;28.80;;;;;;5206462;28;20491;-46
2023/06/12 09:04:41;;;;;;;2.80;2.60;;;25.60;28.90;;;;;;5210022;28;20456;-47
2023/06/12 09:07:17;;;;;;;2.70;2.60;;;25.30;29.00;;;;;;5189363;28;20795;-46
2023/06/12 09:09:48;;;;;;;5.87;2.97;;;25.10;29.90;;;;;;5188402;28;20861;-46
2023/06/12 09:12:19;;;;;;;3.90;2.60;;;25.00;30.00;;;;;;5198728;28;20477;-47
2023/06/12 09:14:50;;;;;;;6.87;2.30;;;24.90;30.60;;;;;;5205912;28;20238;-46
2023/06/12 09:17:28;;;;;;;3.17;2.87;;;25.00;31.00;;;;;;5205703;28;20221;-45
2023/06/12 09:20:00;;;;;;;3.27;2.60;;;25.10;31.00;;;;;;5189414;28;20473;-46
2023/06/12 09:22:31;;;;;;;3.50;3.23;;;25.10;30.70;;;;;;5189602;28;20566;-46
2023/06/12 09:25:05;;;;;;;3.53;3.27;;;25.00;31.30;;;;;;5206494;28;20906;-47
2023/06/12 09:27:43;;;;;;;3.90;2.70;;;24.90;31.70;;;;;;5184333;28;20763;-47
2023/06/12 09:30:14;;;;;;;12.63;2.97;;;24.70;31.40;;;;;;5195444;28;20573;-46
2023/06/12 09:32:44;;;;;;;3.20;3.00;;;24.50;31.70;;;;;;5201639;28;20530;-47
2023/06/12 09:35:16;;;;;;;3.43;3.23;;;24.40;32.10;;;;;;5201884;28;20340;-47
2023/06/12 09:37:48;;;;;;;4.20;2.43;;;24.40;32.40;;;;;;5203059;28;20286;-46
2023/06/12 09:40:19;;;;;;;4.30;2.90;;;24.40;32.00;;;;;;5198329;28;20866;-47
2023/06/12 09:42:50;;;;;;;7.67;3.40;;;24.70;32.60;;;;;;5202604;28;20434;-46
2023/06/12 09:45:23;;;;;;;3.53;3.23;;;25.00;32.70;;;;;;5203170;28;20573;-46
2023/06/12 09:47:55;;;;;;;4.23;2.93;;;25.20;32.10;;;;;;5183606;28;20711;-46
2023/06/12 09:50:25;;;;;;;8.93;3.40;;;25.00;31.90;;;;;;5182854;28;20489;-46
2023/06/12 09:52:58;;;;;;;2.97;2.77;;;24.80;32.00;;;;;;5184027;28;20469;-47
2023/06/12 09:55:30;;;;;;;4.83;3.17;;;24.70;32.40;;;;;;5204322;28;20720;-47
2023/06/12 09:58:05;;;;;;;3.67;3.37;;;24.90;32.50;;;;;;5207072;28;20568;-47
2023/06/12 10:00:35;;;;;;;18.77;3.40;;;24.90;32.20;;;;;;5196273;28;20442;-46
2023/06/12 10:03:09;;;;;;;4.87;3.10;;;25.10;32.90;;;;;;5199983;28;20469;-46
2023/06/12 10:05:48;;;;;;;3.20;2.90;;;25.20;32.70;;;;;;5188767;28;20211;-46
2023/06/12 10:08:19;;;;;;;3.20;3.00;;;25.00;32.80;;;;;;5198847;28;20439;-46
2023/06/12 10:10:51;;;;;;;6.90;3.23;;;24.90;33.40;;;;;;5211167;28;20576;-45
2023/06/12 10:13:24;;;;;;;4.90;2.77;;;25.20;32.80;;;;;;5205537;28;20186;-47
2023/06/12 10:15:55;;;;;;;4.03;3.20;;;25.60;32.20;;;;;;5181570;28;20850;-46
2023/06/12 10:18:28;;;;;;;5.00;2.90;;;25.90;32.10;;;;;;5196656;28;20557;-45
2023/06/12 10:21:00;;;;;;;3.60;3.40;;;26.00;32.60;;;;;;5184973;28;20922;-47
2023/06/12 10:23:31;;;;;;;3.83;3.53;;;25.60;33.10;;;;;;5189418;28;20467;-45
2023/06/12 10:26:03;;;;;;;4.50;3.50;;;25.30;33.50;;;;;;5194081;28;20942;-46
2023/06/12 10:28:35;;;;;;;8.53;3.17;;;25.20;34.20;;;;;;5204216;28;20445;-46
2023/06/12 10:31:11;;;;;;;3.40;3.10;;;25.00;35.10;;;;;;5183427;28;20777;-47
2023/06/12 10:34:02;;;;;;;5.50;3.67;;;25.00;35.50;;;;;;5184857;28;20794;-46
2023/06/12 10:36:41;;;;;;;3.73;3.10;;;25.20;35.90;;;;;;5200855;28;20843;-46
2023/06/12 10:39:23;;;;;;;4.20;3.00;;;25.40;35.40;;;;;;5184177;28;20445;-46
2023/06/12 10:41:58;;;;;;;5.50;3.40;;;25.70;35.30;;;;;;5197346;28;20807;-46
2023/06/12 10:44:38;;;;;;;3.63;3.43;;;25.60;35.30;;;;;;5197216;28;20840;-46
2023/06/12 10:47:21;;;;;;;3.57;3.30;;;25.40;35.40;;;;;;5204204;28;20437;-46
2023/06/12 10:49:57;;;;;;;9.13;3.73;;;25.30;36.30;;;;;;5200033;28;20783;-45
2023/06/12 10:52:28;;;;;;;5.87;3.80;;;25.20;36.40;;;;;;5193953;28;20483;-47
2023/06/12 10:55:27;;;;;;;4.23;3.13;;;25.10;36.70;;;;;;5185349;28;20833;-47
2023/06/12 10:58:03;;;;;;;3.47;3.17;;;24.90;37.00;;;;;;5186025;28;20943;-46
2023/06/12 11:00:37;;;;;;;8.43;3.83;;;24.70;37.00;;;;;;5204647;28;21131;-46
2023/06/12 11:03:21;;;;;;;3.30;3.00;;;24.70;37.00;;;;;;5201618;28;20452;-46
2023/06/12 11:05:58;;;;;;;3.83;2.83;;;24.70;36.20;;;;;;5202020;28;20462;-46
2023/06/12 11:08:32;;;;;;;3.60;3.30;;;24.30;36.30;;;;;;5203625;28;20438;-46
2023/06/12 11:11:11;;;;;;;3.53;3.33;;;24.40;37.00;;;;;;5190764;28;20988;-46
2023/06/12 11:13:43;;;;;;;4.60;3.10;;;24.70;36.80;;;;;;5207909;28;20434;-46
2023/06/12 11:16:17;;;;;;;5.53;3.43;;;25.00;35.10;;;;;;5182356;28;20461;-45
2023/06/12 11:19:05;;;;;;;6.70;3.57;;;25.30;34.00;;;;;;5198743;28;20436;-47
2023/06/12 11:21:39;;;;;;;2.90;2.77;;;25.50;33.90;;;;;;5195538;28;20438;-46
2023/06/12 11:24:13;;;;;;;4.60;2.93;;;25.80;34.40;;;;;;5204110;28;20552;-46
2023/06/12 11:26:44;;;;;;;5.40;3.13;;;25.90;34.30;;;;;;5194552;28;20441;-46
2023/06/12 11:29:15;;;;;;;11.60;3.67;;;25.70;34.50;;;;;;5185419;28;20798;-46
2023/06/12 11:31:50;;;;;;;3.07;2.87;;;25.40;34.90;;;;;;5198728;28;20187;-46
2023/06/12 11:34:21;;;;;;;3.30;3.10;;;25.10;35.60;;;;;;5198984;28;20465;-47
2023/06/12 11:36:51;;;;;;;3.27;3.07;;;25.00;36.10;;;;;;5206708;28;20456;-46
2023/06/12 11:39:22;;;;;;;4.17;3.07;;;25.00;36.10;;;;;;5205180;28;20683;-47
2023/06/12 11:41:53;;;;;;;3.13;2.93;;;25.00;35.80;;;;;;5203464;28;20722;-47
2023/06/12 11:44:24;;;;;;;3.13;2.93;;;24.80;35.90;;;;;;5201553;28;20219;-47
2023/06/12 11:46:58;;;;;;;6.40;3.40;;;25.10;35.70;;;;;;5200020;28;20433;-45
2023/06/12 11:49:33;;;;;;;3.40;3.13;;;25.20;34.40;;;;;;5206824;28;20640;-45
2023/06/12 11:52:06;;;;;;;8.70;3.70;;;25.30;34.50;;;;;;5199775;28;20442;-46
2023/06/12 11:55:00;;;;;;;3.80;3.10;;;25.20;34.10;;;;;;5202075;28;20457;-47
2023/06/12 11:57:31;;;;;;;4.10;3.83;;;25.00;34.60;;;;;;5196098;28;20569;-45
2023/06/12 12:00:12;;;;;;;3.97;3.50;;;24.80;34.60;;;;;;5198366;28;20920;-47
2023/06/12 12:02:49;;;;;;;5.97;3.73;;;24.70;34.80;;;;;;5199118;28;21017;-48
2023/06/12 12:05:22;;;;;;;3.43;3.13;;;24.80;35.40;;;;;;5206686;28;20595;-46
2023/06/12 12:07:57;;;;;;;5.50;3.10;;;25.00;34.60;;;;;;5177180;28;20532;-47
2023/06/12 12:10:28;;;;;;;3.20;3.00;;;25.10;34.30;;;;;;5192024;28;20497;-46
2023/06/12 12:13:03;;;;;;;3.27;2.93;;;25.20;33.60;;;;;;5202199;28;20805;-47
2023/06/12 12:15:40;;;;;;;6.23;3.40;;;24.90;33.60;;;;;;5186675;28;20212;-46
2023/06/12 12:18:16;;;;;;;11.27;4.07;;;24.90;33.50;;;;;;5199469;28;20437;-48
2023/06/12 12:20:50;;;;;;;3.50;2.90;;;24.70;32.90;;;;;;5184344;28;20458;-47
2023/06/12 12:23:24;;;;;;;4.63;4.00;;;24.80;33.10;;;;;;5190547;28;20469;-48
2023/06/12 12:25:57;;;;;;;3.90;3.57;;;25.00;33.70;;;;;;5198489;28;20807;-47
2023/06/12 12:28:28;;;;;;;3.27;2.63;;;25.30;33.80;;;;;;5199314;28;20438;-46
2023/06/12 12:30:59;;;;;;;5.53;3.77;;;25.30;33.80;;;;;;5202025;28;20439;-47
2023/06/12 12:33:29;;;;;;;6.90;3.20;;;25.40;33.90;;;;;;5196425;28;20187;-46
2023/06/12 12:36:01;;;;;;;3.07;2.87;;;25.40;33.90;;;;;;5196224;28;20236;-48
2023/06/12 12:38:31;;;;;;;2.93;2.80;;;25.10;33.60;;;;;;5196841;28;20200;-49
2023/06/12 12:41:02;;;;;;;5.30;2.80;;;25.00;34.10;;;;;;5190372;28;20481;-47
2023/06/12 12:43:33;;;;;;;3.93;3.37;;;24.90;34.00;;;;;;5199171;28;20231;-46
2023/06/12 12:46:03;;;;;;;5.57;3.50;;;24.90;34.10;;;;;;5185476;28;20560;-45
2023/06/12 12:48:35;;;;;;;3.50;2.77;;;24.90;33.80;;;;;;5173448;28;20188;-46
2023/06/12 12:51:05;;;;;;;5.30;2.93;;;25.00;33.50;;;;;;5185230;28;20214;-45
2023/06/12 12:53:36;;;;;;;3.53;3.23;;;25.00;32.90;;;;;;5188230;28;20523;-46
2023/06/12 12:56:07;;;;;;;3.70;2.80;;;25.00;33.50;;;;;;5198941;28;20207;-47
2023/06/12 12:58:37;;;;;;;3.07;2.80;;;25.20;33.50;;;;;;5194922;28;20191;-46
2023/06/12 13:01:09;;;;;;;4.77;2.83;;;25.40;33.40;;;;;;5183705;28;20188;-46
2023/06/12 13:03:39;;;;;;;11.37;3.37;;;25.70;32.60;;;;;;5195580;28;20640;-46
2023/06/12 13:06:13;;;;;;;3.03;2.90;;;25.90;31.70;;;;;;5184543;28;20500;-47
2023/06/12 13:08:43;;;;;;;3.83;2.67;;;25.90;31.40;;;;;;5193137;28;20184;-47
2023/06/12 13:11:14;;;;;;;8.87;2.90;;;25.70;32.90;;;;;;5181874;28;20437;-47